sensor_id;sensor_type;location;lat;lon;timestamp;P1;P2;P0
45700;PMS5003;36277;32.852;-116.998;2023-03-31T00:01:49;15.60;14.60;8.80
45700;PMS5003;36277;32.852;-116.998;2023-03-31T00:04:16;15.00;14.80;8.40
45700;PMS5003;36277;32.852;-116.998;2023-03-31T00:06:43;15.20;15.20;9.00
45700;PMS5003;36277;32.852;-116.998;2023-03-31T00:09:13;14.00;14.00;9.40
45700;PMS5003;36277;32.852;-116.998;2023-03-31T00:11:43;14.80;14.80;8.60
45700;PMS5003;36277;32.852;-116.998;2023-03-31T00:14:10;15.80;15.20;9.00
45700;PMS5003;36277;32.852;-116.998;2023-03-31T00:16:37;15.40;14.80;8.00
45700;PMS5003;36277;32.852;-116.998;2023-03-31T00:19:04;18.20;18.20;10.80
45700;PMS5003;36277;32.852;-116.998;2023-03-31T00:21:34;18.40;18.00;12.00
45700;PMS5003;36277;32.852;-116.998;2023-03-31T00:24:08;11.40;11.40;7.40
45700;PMS5003;36277;32.852;-116.998;2023-03-31T00:26:35;22.60;21.80;12.20
45700;PMS5003;36277;32.852;-116.998;2023-03-31T00:29:03;23.20;22.60;15.00
45700;PMS5003;36277;32.852;-116.998;2023-03-31T00:31:31;25.00;24.80;14.00
45700;PMS5003;36277;32.852;-116.998;2023-03-31T00:33:57;25.25;23.25;13.75
45700;PMS5003;36277;32.852;-116.998;2023-03-31T00:36:24;23.75;23.75;15.00
45700;PMS5003;36277;32.852;-116.998;2023-03-31T00:38:54;23.00;22.50;14.75
45700;PMS5003;36277;32.852;-116.998;2023-03-31T00:41:29;23.50;23.00;14.00
45700;PMS5003;36277;32.852;-116.998;2023-03-31T00:44:00;20.50;20.50;11.75
45700;PMS5003;36277;32.852;-116.998;2023-03-31T00:49:28;15.00;15.00;10.50
45700;PMS5003;36277;32.852;-116.998;2023-03-31T00:52:01;21.75;21.75;14.25
45700;PMS5003;36277;32.852;-116.998;2023-03-31T00:54:32;23.00;22.75;15.00
45700;PMS5003;36277;32.852;-116.998;2023-03-31T00:57:01;21.00;21.00;13.20
45700;PMS5003;36277;32.852;-116.998;2023-03-31T00:59:33;17.20;17.20;11.20
45700;PMS5003;36277;32.852;-116.998;2023-03-31T01:02:05;15.80;15.80;10.00
45700;PMS5003;36277;32.852;-116.998;2023-03-31T01:04:38;16.20;16.20;11.00
45700;PMS5003;36277;32.852;-116.998;2023-03-31T01:07:19;16.80;16.40;10.60
45700;PMS5003;36277;32.852;-116.998;2023-03-31T01:09:58;17.80;17.80;13.20
45700;PMS5003;36277;32.852;-116.998;2023-03-31T01:12:26;16.80;14.80;10.20
45700;PMS5003;36277;32.852;-116.998;2023-03-31T01:14:53;15.00;15.00;10.00
45700;PMS5003;36277;32.852;-116.998;2023-03-31T01:17:20;14.80;14.20;9.80
45700;PMS5003;36277;32.852;-116.998;2023-03-31T01:33:27;9.00;9.00;5.00
45700;PMS5003;36277;32.852;-116.998;2023-03-31T01:37:05;14.20;14.20;9.40
45700;PMS5003;36277;32.852;-116.998;2023-03-31T01:46:59;9.00;9.00;6.00
45700;PMS5003;36277;32.852;-116.998;2023-03-31T01:49:45;8.20;8.20;6.00
45700;PMS5003;36277;32.852;-116.998;2023-03-31T01:52:23;7.20;7.20;5.00
45700;PMS5003;36277;32.852;-116.998;2023-03-31T01:55:00;7.40;7.40;5.40
45700;PMS5003;36277;32.852;-116.998;2023-03-31T01:57:33;9.60;9.00;6.80
45700;PMS5003;36277;32.852;-116.998;2023-03-31T02:00:05;9.00;9.00;6.00
45700;PMS5003;36277;32.852;-116.998;2023-03-31T02:02:37;9.80;9.80;5.80
45700;PMS5003;36277;32.852;-116.998;2023-03-31T02:05:14;4.20;4.20;4.20
45700;PMS5003;36277;32.852;-116.998;2023-03-31T02:07:49;5.20;5.20;3.00
45700;PMS5003;36277;32.852;-116.998;2023-03-31T02:10:21;6.20;6.20;4.00
45700;PMS5003;36277;32.852;-116.998;2023-03-31T02:12:51;8.00;8.00;6.00
45700;PMS5003;36277;32.852;-116.998;2023-03-31T02:15:20;5.80;5.80;4.60
45700;PMS5003;36277;32.852;-116.998;2023-03-31T02:17:52;6.80;6.80;5.00
45700;PMS5003;36277;32.852;-116.998;2023-03-31T02:20:23;6.20;6.20;5.20
45700;PMS5003;36277;32.852;-116.998;2023-03-31T02:22:52;6.00;6.00;4.20
45700;PMS5003;36277;32.852;-116.998;2023-03-31T02:25:22;6.00;6.00;4.40
45700;PMS5003;36277;32.852;-116.998;2023-03-31T02:28:03;3.60;3.60;3.00
45700;PMS5003;36277;32.852;-116.998;2023-03-31T02:30:52;3.20;3.20;2.20
45700;PMS5003;36277;32.852;-116.998;2023-03-31T02:33:29;4.60;4.60;3.80
45700;PMS5003;36277;32.852;-116.998;2023-03-31T02:35:56;4.00;4.00;3.00
45700;PMS5003;36277;32.852;-116.998;2023-03-31T02:38:24;1.00;1.00;1.00
45700;PMS5003;36277;32.852;-116.998;2023-03-31T02:40:51;4.20;4.20;3.00
45700;PMS5003;36277;32.852;-116.998;2023-03-31T02:43:17;3.00;3.00;3.00
45700;PMS5003;36277;32.852;-116.998;2023-03-31T02:48:15;2.00;2.00;1.40
45700;PMS5003;36277;32.852;-116.998;2023-03-31T03:01:40;3.00;3.00;2.00
45700;PMS5003;36277;32.852;-116.998;2023-03-31T03:07:12;2.00;2.00;1.40
45700;PMS5003;36277;32.852;-116.998;2023-03-31T03:12:24;2.00;2.00;1.20
45700;PMS5003;36277;32.852;-116.998;2023-03-31T03:15:06;1.80;1.80;1.20
45700;PMS5003;36277;32.852;-116.998;2023-03-31T03:17:49;1.40;1.40;1.00
45700;PMS5003;36277;32.852;-116.998;2023-03-31T03:20:17;2.60;2.60;2.00
45700;PMS5003;36277;32.852;-116.998;2023-03-31T03:22:45;1.80;1.80;1.00
45700;PMS5003;36277;32.852;-116.998;2023-03-31T03:25:12;1.60;1.60;1.60
45700;PMS5003;36277;32.852;-116.998;2023-03-31T03:27:45;2.00;2.00;1.60
45700;PMS5003;36277;32.852;-116.998;2023-03-31T03:30:12;2.00;2.00;1.00
45700;PMS5003;36277;32.852;-116.998;2023-03-31T03:32:38;1.80;1.80;1.00
45700;PMS5003;36277;32.852;-116.998;2023-03-31T03:35:06;1.80;1.80;1.00
45700;PMS5003;36277;32.852;-116.998;2023-03-31T03:37:33;1.40;1.40;1.00
45700;PMS5003;36277;32.852;-116.998;2023-03-31T03:39:59;2.40;2.40;2.00
45700;PMS5003;36277;32.852;-116.998;2023-03-31T03:42:25;2.00;2.00;1.00
45700;PMS5003;36277;32.852;-116.998;2023-03-31T03:44:51;1.20;1.20;1.20
45700;PMS5003;36277;32.852;-116.998;2023-03-31T03:47:18;1.00;1.00;1.00
45700;PMS5003;36277;32.852;-116.998;2023-03-31T03:49:44;2.20;2.20;1.80
45700;PMS5003;36277;32.852;-116.998;2023-03-31T03:52:12;2.20;2.20;1.80
45700;PMS5003;36277;32.852;-116.998;2023-03-31T03:54:39;0.40;0.40;0.00
45700;PMS5003;36277;32.852;-116.998;2023-03-31T03:57:05;2.40;2.40;2.00
45700;PMS5003;36277;32.852;-116.998;2023-03-31T03:59:32;1.00;1.00;1.00
45700;PMS5003;36277;32.852;-116.998;2023-03-31T04:01:58;2.00;2.00;1.80
45700;PMS5003;36277;32.852;-116.998;2023-03-31T04:04:24;2.80;2.80;2.00
45700;PMS5003;36277;32.852;-116.998;2023-03-31T04:06:51;7.40;7.40;5.00
45700;PMS5003;36277;32.852;-116.998;2023-03-31T04:09:17;7.60;7.60;5.20
45700;PMS5003;36277;32.852;-116.998;2023-03-31T04:11:43;8.00;7.60;4.80
45700;PMS5003;36277;32.852;-116.998;2023-03-31T04:14:10;7.20;7.20;4.60
45700;PMS5003;36277;32.852;-116.998;2023-03-31T04:16:36;9.60;9.60;6.00
45700;PMS5003;36277;32.852;-116.998;2023-03-31T04:19:04;7.60;7.60;5.40
45700;PMS5003;36277;32.852;-116.998;2023-03-31T04:21:31;9.00;9.00;4.80
45700;PMS5003;36277;32.852;-116.998;2023-03-31T04:24:00;7.60;7.60;3.80
45700;PMS5003;36277;32.852;-116.998;2023-03-31T04:26:29;13.80;13.80;7.00
45700;PMS5003;36277;32.852;-116.998;2023-03-31T04:29:11;12.20;12.20;6.20
45700;PMS5003;36277;32.852;-116.998;2023-03-31T04:31:40;15.80;14.60;7.00
45700;PMS5003;36277;32.852;-116.998;2023-03-31T04:34:12;18.20;17.80;9.80
45700;PMS5003;36277;32.852;-116.998;2023-03-31T04:36:43;12.80;12.80;7.40
45700;PMS5003;36277;32.852;-116.998;2023-03-31T04:39:15;34.50;32.25;19.50
45700;PMS5003;36277;32.852;-116.998;2023-03-31T04:41:41;26.80;24.60;13.20
45700;PMS5003;36277;32.852;-116.998;2023-03-31T04:44:07;30.80;29.80;12.60
45700;PMS5003;36277;32.852;-116.998;2023-03-31T04:46:34;38.50;34.75;18.50
45700;PMS5003;36277;32.852;-116.998;2023-03-31T04:49:00;47.50;38.25;21.00
45700;PMS5003;36277;32.852;-116.998;2023-03-31T04:51:27;54.25;44.25;23.00
45700;PMS5003;36277;32.852;-116.998;2023-03-31T04:53:54;52.00;40.75;21.75
45700;PMS5003;36277;32.852;-116.998;2023-03-31T04:56:20;48.75;41.50;20.50
45700;PMS5003;36277;32.852;-116.998;2023-03-31T04:58:47;53.75;45.25;23.25
45700;PMS5003;36277;32.852;-116.998;2023-03-31T05:01:13;62.50;49.25;27.25
45700;PMS5003;36277;32.852;-116.998;2023-03-31T05:03:42;60.00;48.00;25.75
45700;PMS5003;36277;32.852;-116.998;2023-03-31T05:06:12;72.00;58.75;29.50
45700;PMS5003;36277;32.852;-116.998;2023-03-31T05:08:40;66.00;53.00;30.25
45700;PMS5003;36277;32.852;-116.998;2023-03-31T05:11:06;74.60;65.40;35.00
45700;PMS5003;36277;32.852;-116.998;2023-03-31T05:13:33;72.50;59.00;30.75
45700;PMS5003;36277;32.852;-116.998;2023-03-31T05:16:06;68.50;54.75;30.75
45700;PMS5003;36277;32.852;-116.998;2023-03-31T05:18:35;67.50;53.75;29.75
45700;PMS5003;36277;32.852;-116.998;2023-03-31T05:21:14;69.20;55.20;33.40
45700;PMS5003;36277;32.852;-116.998;2023-03-31T05:23:43;77.40;69.40;39.00
45700;PMS5003;36277;32.852;-116.998;2023-03-31T05:26:10;75.80;66.40;41.60
45700;PMS5003;36277;32.852;-116.998;2023-03-31T05:28:37;72.60;62.20;41.80
45700;PMS5003;36277;32.852;-116.998;2023-03-31T05:31:05;73.20;60.00;35.20
45700;PMS5003;36277;32.852;-116.998;2023-03-31T05:33:32;70.80;60.20;39.60
45700;PMS5003;36277;32.852;-116.998;2023-03-31T05:35:59;75.00;65.00;40.40
45700;PMS5003;36277;32.852;-116.998;2023-03-31T05:38:25;71.20;57.60;35.00
45700;PMS5003;36277;32.852;-116.998;2023-03-31T05:40:59;74.00;61.20;38.80
45700;PMS5003;36277;32.852;-116.998;2023-03-31T05:43:25;73.80;61.60;37.80
45700;PMS5003;36277;32.852;-116.998;2023-03-31T05:45:51;77.80;69.00;42.60
45700;PMS5003;36277;32.852;-116.998;2023-03-31T05:48:17;72.20;55.40;35.00
45700;PMS5003;36277;32.852;-116.998;2023-03-31T05:50:44;71.80;60.20;38.40
45700;PMS5003;36277;32.852;-116.998;2023-03-31T05:53:10;71.40;59.20;36.00
45700;PMS5003;36277;32.852;-116.998;2023-03-31T05:55:36;71.60;60.00;36.00
45700;PMS5003;36277;32.852;-116.998;2023-03-31T05:58:03;67.80;55.00;36.20
45700;PMS5003;36277;32.852;-116.998;2023-03-31T06:00:31;68.60;55.00;34.00
45700;PMS5003;36277;32.852;-116.998;2023-03-31T06:02:57;66.80;54.40;34.80
45700;PMS5003;36277;32.852;-116.998;2023-03-31T06:05:24;65.20;53.40;35.20
45700;PMS5003;36277;32.852;-116.998;2023-03-31T06:07:55;67.20;54.40;34.40
45700;PMS5003;36277;32.852;-116.998;2023-03-31T06:10:21;64.00;51.80;32.80
45700;PMS5003;36277;32.852;-116.998;2023-03-31T06:12:47;68.20;54.40;33.80
45700;PMS5003;36277;32.852;-116.998;2023-03-31T06:15:14;63.80;52.40;34.00
45700;PMS5003;36277;32.852;-116.998;2023-03-31T06:17:40;66.00;52.20;33.60
45700;PMS5003;36277;32.852;-116.998;2023-03-31T06:20:06;64.40;50.20;32.00
45700;PMS5003;36277;32.852;-116.998;2023-03-31T06:22:33;61.60;50.00;32.00
45700;PMS5003;36277;32.852;-116.998;2023-03-31T06:24:59;59.80;49.80;32.40
45700;PMS5003;36277;32.852;-116.998;2023-03-31T06:27:26;58.80;48.40;31.00
45700;PMS5003;36277;32.852;-116.998;2023-03-31T06:29:52;58.00;48.25;30.00
45700;PMS5003;36277;32.852;-116.998;2023-03-31T06:32:19;52.50;45.00;28.75
45700;PMS5003;36277;32.852;-116.998;2023-03-31T06:34:45;48.00;42.00;26.00
45700;PMS5003;36277;32.852;-116.998;2023-03-31T06:37:12;49.75;42.25;27.50
45700;PMS5003;36277;32.852;-116.998;2023-03-31T06:39:38;47.50;41.25;25.75
45700;PMS5003;36277;32.852;-116.998;2023-03-31T06:42:04;43.75;37.25;24.25
45700;PMS5003;36277;32.852;-116.998;2023-03-31T06:44:31;44.25;39.25;25.00
45700;PMS5003;36277;32.852;-116.998;2023-03-31T06:46:57;38.25;35.25;23.25
45700;PMS5003;36277;32.852;-116.998;2023-03-31T06:49:24;39.75;35.50;23.75
45700;PMS5003;36277;32.852;-116.998;2023-03-31T06:51:50;39.25;35.50;23.25
45700;PMS5003;36277;32.852;-116.998;2023-03-31T06:54:16;31.50;31.00;21.00
45700;PMS5003;36277;32.852;-116.998;2023-03-31T06:56:42;29.50;29.50;19.75
45700;PMS5003;36277;32.852;-116.998;2023-03-31T06:59:09;28.25;26.75;18.25
45700;PMS5003;36277;32.852;-116.998;2023-03-31T07:01:35;25.50;25.50;18.00
45700;PMS5003;36277;32.852;-116.998;2023-03-31T07:04:03;20.00;20.00;14.00
45700;PMS5003;36277;32.852;-116.998;2023-03-31T07:06:29;18.40;18.40;15.40
45700;PMS5003;36277;32.852;-116.998;2023-03-31T07:08:55;19.75;19.00;14.25
45700;PMS5003;36277;32.852;-116.998;2023-03-31T07:11:22;16.80;16.80;12.40
45700;PMS5003;36277;32.852;-116.998;2023-03-31T07:13:48;16.60;16.60;12.00
45700;PMS5003;36277;32.852;-116.998;2023-03-31T07:16:14;19.60;18.40;12.60
45700;PMS5003;36277;32.852;-116.998;2023-03-31T07:18:41;12.00;12.00;8.00
45700;PMS5003;36277;32.852;-116.998;2023-03-31T07:21:07;15.40;15.40;12.40
45700;PMS5003;36277;32.852;-116.998;2023-03-31T07:23:34;13.20;13.20;10.60
45700;PMS5003;36277;32.852;-116.998;2023-03-31T07:26:00;14.40;14.40;11.20
45700;PMS5003;36277;32.852;-116.998;2023-03-31T07:28:27;12.60;12.60;9.80
45700;PMS5003;36277;32.852;-116.998;2023-03-31T07:30:55;13.80;13.80;11.00
45700;PMS5003;36277;32.852;-116.998;2023-03-31T07:33:21;14.20;14.20;11.00
45700;PMS5003;36277;32.852;-116.998;2023-03-31T07:35:47;14.80;14.80;11.80
45700;PMS5003;36277;32.852;-116.998;2023-03-31T07:38:13;11.80;11.80;8.60
45700;PMS5003;36277;32.852;-116.998;2023-03-31T07:40:40;14.60;14.60;11.80
45700;PMS5003;36277;32.852;-116.998;2023-03-31T07:43:08;11.00;11.00;9.00
45700;PMS5003;36277;32.852;-116.998;2023-03-31T07:45:35;12.00;11.00;8.40
45700;PMS5003;36277;32.852;-116.998;2023-03-31T07:48:03;14.20;13.20;10.20
45700;PMS5003;36277;32.852;-116.998;2023-03-31T07:50:30;11.00;11.00;9.00
45700;PMS5003;36277;32.852;-116.998;2023-03-31T07:52:56;12.80;12.80;10.00
45700;PMS5003;36277;32.852;-116.998;2023-03-31T07:55:22;11.60;11.60;9.40
45700;PMS5003;36277;32.852;-116.998;2023-03-31T07:57:50;9.40;9.40;7.40
45700;PMS5003;36277;32.852;-116.998;2023-03-31T08:00:17;10.20;10.20;7.20
45700;PMS5003;36277;32.852;-116.998;2023-03-31T08:02:43;9.20;9.20;8.00
45700;PMS5003;36277;32.852;-116.998;2023-03-31T08:05:10;9.00;9.00;8.00
45700;PMS5003;36277;32.852;-116.998;2023-03-31T08:07:39;10.80;10.80;8.00
45700;PMS5003;36277;32.852;-116.998;2023-03-31T08:10:09;8.60;8.60;6.60
45700;PMS5003;36277;32.852;-116.998;2023-03-31T08:12:41;10.60;10.60;8.40
45700;PMS5003;36277;32.852;-116.998;2023-03-31T08:15:07;6.80;6.80;6.00
45700;PMS5003;36277;32.852;-116.998;2023-03-31T08:17:34;7.00;7.00;6.20
45700;PMS5003;36277;32.852;-116.998;2023-03-31T08:20:00;8.60;8.60;5.20
45700;PMS5003;36277;32.852;-116.998;2023-03-31T08:22:28;7.00;7.00;6.80
45700;PMS5003;36277;32.852;-116.998;2023-03-31T08:24:55;8.80;8.80;7.40
45700;PMS5003;36277;32.852;-116.998;2023-03-31T08:27:21;6.20;6.20;6.00
45700;PMS5003;36277;32.852;-116.998;2023-03-31T08:29:47;8.00;8.00;7.40
45700;PMS5003;36277;32.852;-116.998;2023-03-31T08:32:14;9.00;9.00;7.40
45700;PMS5003;36277;32.852;-116.998;2023-03-31T08:34:40;6.00;6.00;6.00
45700;PMS5003;36277;32.852;-116.998;2023-03-31T08:37:07;7.80;7.80;6.60
45700;PMS5003;36277;32.852;-116.998;2023-03-31T08:39:34;8.40;8.40;6.40
45700;PMS5003;36277;32.852;-116.998;2023-03-31T08:42:03;4.60;4.60;3.00
45700;PMS5003;36277;32.852;-116.998;2023-03-31T08:44:34;7.00;7.00;5.40
45700;PMS5003;36277;32.852;-116.998;2023-03-31T08:47:13;5.00;5.00;4.00
45700;PMS5003;36277;32.852;-116.998;2023-03-31T08:49:50;5.00;5.00;4.00
45700;PMS5003;36277;32.852;-116.998;2023-03-31T08:52:26;4.80;4.80;4.80
45700;PMS5003;36277;32.852;-116.998;2023-03-31T08:55:00;5.80;5.80;5.40
45700;PMS5003;36277;32.852;-116.998;2023-03-31T09:06:07;6.60;6.60;5.80
45700;PMS5003;36277;32.852;-116.998;2023-03-31T09:08:47;4.00;4.00;4.00
45700;PMS5003;36277;32.852;-116.998;2023-03-31T09:11:14;7.00;7.00;5.00
45700;PMS5003;36277;32.852;-116.998;2023-03-31T09:19:30;3.60;3.60;3.00
45700;PMS5003;36277;32.852;-116.998;2023-03-31T09:22:02;4.20;4.20;3.80
45700;PMS5003;36277;32.852;-116.998;2023-03-31T09:24:38;5.00;5.00;4.40
45700;PMS5003;36277;32.852;-116.998;2023-03-31T09:27:16;4.00;4.00;3.60
45700;PMS5003;36277;32.852;-116.998;2023-03-31T09:32:29;5.40;5.40;5.00
45700;PMS5003;36277;32.852;-116.998;2023-03-31T09:35:01;4.20;4.20;4.00
45700;PMS5003;36277;32.852;-116.998;2023-03-31T09:37:45;4.00;4.00;4.00
45700;PMS5003;36277;32.852;-116.998;2023-03-31T09:40:22;4.00;4.00;4.00
45700;PMS5003;36277;32.852;-116.998;2023-03-31T09:42:52;4.00;4.00;3.00
45700;PMS5003;36277;32.852;-116.998;2023-03-31T09:45:28;5.00;5.00;4.20
45700;PMS5003;36277;32.852;-116.998;2023-03-31T09:48:00;3.40;3.40;3.00
45700;PMS5003;36277;32.852;-116.998;2023-03-31T09:50:30;4.60;4.60;4.00
45700;PMS5003;36277;32.852;-116.998;2023-03-31T09:53:06;3.00;3.00;2.80
45700;PMS5003;36277;32.852;-116.998;2023-03-31T09:55:44;3.00;3.00;2.80
45700;PMS5003;36277;32.852;-116.998;2023-03-31T09:58:16;4.20;4.20;3.60
45700;PMS5003;36277;32.852;-116.998;2023-03-31T10:00:54;3.00;3.00;3.00
45700;PMS5003;36277;32.852;-116.998;2023-03-31T10:03:24;3.00;3.00;2.00
45700;PMS5003;36277;32.852;-116.998;2023-03-31T10:05:54;4.00;4.00;4.00
45700;PMS5003;36277;32.852;-116.998;2023-03-31T10:08:29;2.80;2.80;2.00
45700;PMS5003;36277;32.852;-116.998;2023-03-31T10:13:28;3.20;3.20;3.00
45700;PMS5003;36277;32.852;-116.998;2023-03-31T10:16:11;3.00;3.00;2.40
45700;PMS5003;36277;32.852;-116.998;2023-03-31T10:18:41;3.00;3.00;2.80
45700;PMS5003;36277;32.852;-116.998;2023-03-31T10:21:24;5.00;5.00;4.00
45700;PMS5003;36277;32.852;-116.998;2023-03-31T10:23:52;3.00;3.00;2.40
45700;PMS5003;36277;32.852;-116.998;2023-03-31T10:26:21;3.00;3.00;3.00
45700;PMS5003;36277;32.852;-116.998;2023-03-31T10:28:50;3.00;3.00;3.00
45700;PMS5003;36277;32.852;-116.998;2023-03-31T10:31:20;2.00;2.00;2.00
45700;PMS5003;36277;32.852;-116.998;2023-03-31T10:33:50;3.20;3.20;3.00
45700;PMS5003;36277;32.852;-116.998;2023-03-31T10:36:22;3.20;3.20;3.00
45700;PMS5003;36277;32.852;-116.998;2023-03-31T10:38:52;3.80;3.80;3.00
45700;PMS5003;36277;32.852;-116.998;2023-03-31T10:41:20;3.00;3.00;2.80
45700;PMS5003;36277;32.852;-116.998;2023-03-31T10:43:55;2.80;2.80;2.00
45700;PMS5003;36277;32.852;-116.998;2023-03-31T10:46:42;3.00;3.00;3.00
45700;PMS5003;36277;32.852;-116.998;2023-03-31T10:51:48;2.40;2.40;2.00
45700;PMS5003;36277;32.852;-116.998;2023-03-31T10:54:18;2.00;2.00;2.00
45700;PMS5003;36277;32.852;-116.998;2023-03-31T10:56:46;2.00;2.00;2.00
45700;PMS5003;36277;32.852;-116.998;2023-03-31T11:05:12;2.60;2.60;2.00
45700;PMS5003;36277;32.852;-116.998;2023-03-31T11:16:30;1.80;1.80;1.40
45700;PMS5003;36277;32.852;-116.998;2023-03-31T11:19:15;3.80;3.80;3.40
45700;PMS5003;36277;32.852;-116.998;2023-03-31T11:22:05;1.00;1.00;1.00
45700;PMS5003;36277;32.852;-116.998;2023-03-31T11:27:30;2.00;2.00;2.00
45700;PMS5003;36277;32.852;-116.998;2023-03-31T11:33:07;1.60;1.60;1.60
45700;PMS5003;36277;32.852;-116.998;2023-03-31T11:39:09;1.60;1.60;1.40
45700;PMS5003;36277;32.852;-116.998;2023-03-31T11:41:59;1.00;1.00;0.80
45700;PMS5003;36277;32.852;-116.998;2023-03-31T11:44:51;2.00;2.00;2.00
45700;PMS5003;36277;32.852;-116.998;2023-03-31T11:47:25;1.20;1.20;1.20
45700;PMS5003;36277;32.852;-116.998;2023-03-31T11:50:20;1.00;1.00;1.00
45700;PMS5003;36277;32.852;-116.998;2023-03-31T11:52:53;2.00;2.00;1.00
45700;PMS5003;36277;32.852;-116.998;2023-03-31T11:55:26;1.60;1.60;1.00
45700;PMS5003;36277;32.852;-116.998;2023-03-31T12:03:19;2.00;2.00;2.00
45700;PMS5003;36277;32.852;-116.998;2023-03-31T12:05:48;1.00;1.00;1.00
45700;PMS5003;36277;32.852;-116.998;2023-03-31T12:08:33;1.00;1.00;0.40
45700;PMS5003;36277;32.852;-116.998;2023-03-31T12:11:48;1.00;1.00;1.00
45700;PMS5003;36277;32.852;-116.998;2023-03-31T12:22:07;1.00;1.00;1.00
45700;PMS5003;36277;32.852;-116.998;2023-03-31T12:24:45;1.00;1.00;1.00
45700;PMS5003;36277;32.852;-116.998;2023-03-31T12:29:59;1.00;1.00;1.00
45700;PMS5003;36277;32.852;-116.998;2023-03-31T12:32:35;1.00;1.00;1.00
45700;PMS5003;36277;32.852;-116.998;2023-03-31T12:35:22;1.00;1.00;1.00
45700;PMS5003;36277;32.852;-116.998;2023-03-31T12:38:01;1.40;1.40;1.00
45700;PMS5003;36277;32.852;-116.998;2023-03-31T12:41:08;1.00;1.00;1.00
45700;PMS5003;36277;32.852;-116.998;2023-03-31T12:43:50;1.00;1.00;0.00
45700;PMS5003;36277;32.852;-116.998;2023-03-31T12:46:28;0.00;0.00;0.00
45700;PMS5003;36277;32.852;-116.998;2023-03-31T12:49:15;1.00;1.00;1.00
45700;PMS5003;36277;32.852;-116.998;2023-03-31T12:57:50;0.00;0.00;0.00
45700;PMS5003;36277;32.852;-116.998;2023-03-31T13:02:48;0.00;0.00;0.00
45700;PMS5003;36277;32.852;-116.998;2023-03-31T13:08:06;0.00;0.00;0.00
45700;PMS5003;36277;32.852;-116.998;2023-03-31T13:10:51;0.00;0.00;0.00
45700;PMS5003;36277;32.852;-116.998;2023-03-31T13:13:22;0.00;0.00;0.00
45700;PMS5003;36277;32.852;-116.998;2023-03-31T13:15:53;1.00;1.00;0.00
45700;PMS5003;36277;32.852;-116.998;2023-03-31T13:18:24;0.00;0.00;0.00
45700;PMS5003;36277;32.852;-116.998;2023-03-31T13:21:00;0.40;0.40;0.40
45700;PMS5003;36277;32.852;-116.998;2023-03-31T13:23:33;0.20;0.20;0.20
45700;PMS5003;36277;32.852;-116.998;2023-03-31T13:26:01;0.00;0.00;0.00
45700;PMS5003;36277;32.852;-116.998;2023-03-31T13:28:31;0.00;0.00;0.00
45700;PMS5003;36277;32.852;-116.998;2023-03-31T13:31:03;0.00;0.00;0.00
45700;PMS5003;36277;32.852;-116.998;2023-03-31T13:33:42;0.00;0.00;0.00
45700;PMS5003;36277;32.852;-116.998;2023-03-31T13:39:06;0.20;0.20;0.20
45700;PMS5003;36277;32.852;-116.998;2023-03-31T13:49:50;1.00;1.00;0.80
45700;PMS5003;36277;32.852;-116.998;2023-03-31T13:52:35;0.80;0.80;0.40
45700;PMS5003;36277;32.852;-116.998;2023-03-31T14:09:01;37.00;35.25;22.75
45700;PMS5003;36277;32.852;-116.998;2023-03-31T14:11:49;39.00;36.00;21.00
45700;PMS5003;36277;32.852;-116.998;2023-03-31T14:14:16;33.50;32.25;20.25
45700;PMS5003;36277;32.852;-116.998;2023-03-31T14:21:50;35.00;33.75;21.25
45700;PMS5003;36277;32.852;-116.998;2023-03-31T14:24:38;31.75;31.75;17.50
45700;PMS5003;36277;32.852;-116.998;2023-03-31T14:38:09;13.25;13.25;8.25
45700;PMS5003;36277;32.852;-116.998;2023-03-31T14:40:46;16.50;16.50;11.50
45700;PMS5003;36277;32.852;-116.998;2023-03-31T14:43:25;17.50;17.50;10.75
45700;PMS5003;36277;32.852;-116.998;2023-03-31T14:46:01;15.00;15.00;9.00
45700;PMS5003;36277;32.852;-116.998;2023-03-31T14:48:44;17.00;17.00;12.50
45700;PMS5003;36277;32.852;-116.998;2023-03-31T14:51:15;15.00;14.50;10.00
45700;PMS5003;36277;32.852;-116.998;2023-03-31T14:53:44;15.25;15.00;9.25
45700;PMS5003;36277;32.852;-116.998;2023-03-31T14:56:13;18.50;18.50;11.75
45700;PMS5003;36277;32.852;-116.998;2023-03-31T14:58:48;9.00;9.00;5.25
45700;PMS5003;36277;32.852;-116.998;2023-03-31T15:01:38;12.75;12.75;8.00
45700;PMS5003;36277;32.852;-116.998;2023-03-31T15:04:05;9.00;9.00;6.00
45700;PMS5003;36277;32.852;-116.998;2023-03-31T15:06:34;13.50;12.50;7.50
45700;PMS5003;36277;32.852;-116.998;2023-03-31T15:09:04;8.00;8.00;6.00
45700;PMS5003;36277;32.852;-116.998;2023-03-31T15:11:30;5.75;5.75;3.75
45700;PMS5003;36277;32.852;-116.998;2023-03-31T15:13:57;8.00;8.00;6.00
45700;PMS5003;36277;32.852;-116.998;2023-03-31T15:18:58;4.50;4.50;3.50
45700;PMS5003;36277;32.852;-116.998;2023-03-31T15:21:26;7.50;7.50;6.50
45700;PMS5003;36277;32.852;-116.998;2023-03-31T15:23:56;85.20;76.80;36.60
45700;PMS5003;36277;32.852;-116.998;2023-03-31T15:26:24;66.75;52.50;29.50
45700;PMS5003;36277;32.852;-116.998;2023-03-31T15:29:15;80.20;64.80;34.20
45700;PMS5003;36277;32.852;-116.998;2023-03-31T15:31:48;70.60;56.80;31.40
45700;PMS5003;36277;32.852;-116.998;2023-03-31T15:34:21;72.20;56.60;31.80
45700;PMS5003;36277;32.852;-116.998;2023-03-31T15:36:54;52.50;43.75;25.75
45700;PMS5003;36277;32.852;-116.998;2023-03-31T15:39:22;35.75;34.25;16.75
45700;PMS5003;36277;32.852;-116.998;2023-03-31T15:41:51;29.25;27.25;15.25
45700;PMS5003;36277;32.852;-116.998;2023-03-31T15:47:16;31.50;28.25;14.25
45700;PMS5003;36277;32.852;-116.998;2023-03-31T15:52:35;17.25;17.25;7.00
45700;PMS5003;36277;32.852;-116.998;2023-03-31T15:57:48;15.00;15.00;8.50
45700;PMS5003;36277;32.852;-116.998;2023-03-31T16:05:55;14.50;14.50;8.75
45700;PMS5003;36277;32.852;-116.998;2023-03-31T16:11:08;6.20;6.00;4.40
45700;PMS5003;36277;32.852;-116.998;2023-03-31T16:13:42;13.80;13.80;8.00
45700;PMS5003;36277;32.852;-116.998;2023-03-31T16:16:15;7.75;7.75;2.00
45700;PMS5003;36277;32.852;-116.998;2023-03-31T16:18:46;11.25;11.25;6.25
45700;PMS5003;36277;32.852;-116.998;2023-03-31T16:21:24;28.25;25.75;14.00
45700;PMS5003;36277;32.852;-116.998;2023-03-31T16:23:57;34.75;33.50;16.25
45700;PMS5003;36277;32.852;-116.998;2023-03-31T16:26:24;17.50;17.00;8.25
45700;PMS5003;36277;32.852;-116.998;2023-03-31T16:28:53;32.50;32.00;16.50
45700;PMS5003;36277;32.852;-116.998;2023-03-31T16:31:29;35.25;32.75;16.75
45700;PMS5003;36277;32.852;-116.998;2023-03-31T16:34:00;41.75;35.75;18.00
45700;PMS5003;36277;32.852;-116.998;2023-03-31T16:36:29;38.50;34.75;16.75
45700;PMS5003;36277;32.852;-116.998;2023-03-31T16:38:56;35.00;34.00;17.50
45700;PMS5003;36277;32.852;-116.998;2023-03-31T16:41:24;41.75;36.50;18.75
45700;PMS5003;36277;32.852;-116.998;2023-03-31T16:43:53;39.50;33.75;16.75
45700;PMS5003;36277;32.852;-116.998;2023-03-31T16:46:20;40.75;36.25;17.00
45700;PMS5003;36277;32.852;-116.998;2023-03-31T16:48:47;34.25;32.50;18.50